createdAt,value
2023-02-11T00:00:40.054Z,4.87
2023-02-11T00:03:06.893Z,4.92
2023-02-11T00:05:33.730Z,4.94
2023-02-11T00:08:00.107Z,4.91
2023-02-11T00:10:26.482Z,5.00
2023-02-11T00:12:52.811Z,5.05
2023-02-11T00:15:19.132Z,5.05
2023-02-11T00:17:45.451Z,4.92
2023-02-11T00:20:11.760Z,5.07
2023-02-11T00:22:38.065Z,5.05
2023-02-11T00:25:04.643Z,5.16
2023-02-11T00:27:30.960Z,5.12
2023-02-11T00:29:57.278Z,5.01
2023-02-11T00:32:23.603Z,5.07
2023-02-11T00:34:52.540Z,4.97
2023-02-11T00:37:18.853Z,5.09
2023-02-11T00:39:45.206Z,5.19
2023-02-11T00:42:14.482Z,5.15
2023-02-11T00:44:40.888Z,5.11
2023-02-11T00:47:07.189Z,5.08
2023-02-11T00:49:33.657Z,5.09
2023-02-11T00:51:59.972Z,5.14
2023-02-11T00:54:28.394Z,5.10
2023-02-11T00:56:55.986Z,5.10
2023-02-11T00:59:22.293Z,5.19
2023-02-11T01:01:48.640Z,5.10
2023-02-11T01:04:15.008Z,5.06
2023-02-11T01:06:41.321Z,5.12
2023-02-11T01:09:07.636Z,4.99
2023-02-11T01:11:33.958Z,5.04
2023-02-11T01:14:00.292Z,5.12
2023-02-11T01:16:26.607Z,5.01
2023-02-11T01:18:52.933Z,5.11
2023-02-11T01:21:19.319Z,4.97
2023-02-11T01:23:45.627Z,5.04
2023-02-11T01:26:12.145Z,5.01
2023-02-11T01:28:38.582Z,5.05
2023-02-11T01:31:05.077Z,4.96
2023-02-11T01:33:31.515Z,5.04
2023-02-11T01:36:02.885Z,5.01
2023-02-11T01:38:29.922Z,4.91
2023-02-11T01:40:59.992Z,4.90
2023-02-11T01:43:31.009Z,4.90
2023-02-11T01:46:17.523Z,4.90
2023-02-11T01:48:47.669Z,4.94
2023-02-11T01:51:23.250Z,4.95
2023-02-11T01:53:49.976Z,4.92
2023-02-11T01:56:18.053Z,5.01
2023-02-11T01:58:47.081Z,4.94
2023-02-11T02:01:17.652Z,5.02
2023-02-11T02:03:47.620Z,5.09
2023-02-11T02:06:24.636Z,5.06
2023-02-11T02:09:01.136Z,4.96
2023-02-11T02:11:27.701Z,4.98
2023-02-11T02:13:54.012Z,4.99
2023-02-11T02:16:24.849Z,4.97
2023-02-11T02:19:13.658Z,4.94
2023-02-11T02:21:59.193Z,4.99
2023-02-11T02:24:43.477Z,5.03
2023-02-11T02:27:47.539Z,4.94
2023-02-11T02:30:55.744Z,4.91
2023-02-11T02:34:00.563Z,5.01
2023-02-11T02:36:57.067Z,4.91
2023-02-11T02:39:28.485Z,5.07
2023-02-11T02:41:56.738Z,5.04
2023-02-11T02:44:23.885Z,5.09
2023-02-11T02:46:50.249Z,4.99
2023-02-11T02:49:17.167Z,5.04
2023-02-11T02:52:07.075Z,4.95
2023-02-11T02:54:53.005Z,5.05
2023-02-11T02:57:37.625Z,4.95
2023-02-11T03:00:19.087Z,4.95
2023-02-11T03:03:15.623Z,4.94
2023-02-11T03:05:54.371Z,4.95
2023-02-11T03:09:05.883Z,4.90
2023-02-11T03:11:34.174Z,5.00
2023-02-11T03:14:04.571Z,4.96
2023-02-11T03:16:31.074Z,4.97
2023-02-11T03:19:03.681Z,5.05
2023-02-11T03:21:34.187Z,4.94
2023-02-11T03:24:05.739Z,4.95
2023-02-11T03:26:46.438Z,4.90
2023-02-11T03:29:18.607Z,4.92
2023-02-11T03:32:03.581Z,4.89
2023-02-11T03:34:37.808Z,4.86
2023-02-11T03:37:17.660Z,4.89
2023-02-11T03:39:54.966Z,4.79
2023-02-11T03:42:26.356Z,4.82
2023-02-11T03:45:00.323Z,4.70
2023-02-11T03:47:29.284Z,4.67
2023-02-11T03:49:58.794Z,4.64
2023-02-11T03:52:26.099Z,4.74
2023-02-11T03:54:55.988Z,4.70
2023-02-11T03:57:22.316Z,4.78
2023-02-11T03:59:59.260Z,4.70
2023-02-11T04:02:33.118Z,4.73
2023-02-11T04:04:59.998Z,4.68
2023-02-11T04:07:27.204Z,4.68
2023-02-11T04:09:53.720Z,4.74
2023-02-11T04:12:20.705Z,4.71
2023-02-11T04:14:47.035Z,4.66
2023-02-11T04:17:13.450Z,4.73
2023-02-11T04:19:39.807Z,4.84
2023-02-11T04:22:07.092Z,4.81
2023-02-11T04:24:33.747Z,4.85
2023-02-11T04:27:00.093Z,4.89
2023-02-11T04:29:26.645Z,4.86
2023-02-11T04:31:52.964Z,4.90
2023-02-11T04:34:19.294Z,4.94
2023-02-11T04:36:45.594Z,4.80
2023-02-11T04:39:11.988Z,4.88
2023-02-11T04:41:38.425Z,4.92
2023-02-11T04:44:05.368Z,5.03
2023-02-11T04:46:31.707Z,4.92
2023-02-11T04:48:58.170Z,4.99
2023-02-11T04:51:24.793Z,4.95
2023-02-11T04:53:51.132Z,4.96
2023-02-11T04:56:17.477Z,5.07
2023-02-11T04:58:43.792Z,5.05
2023-02-11T05:01:13.471Z,5.06
2023-02-11T05:03:40.317Z,5.07
2023-02-11T05:06:07.043Z,5.12
2023-02-11T05:08:33.422Z,4.99
2023-02-11T05:10:59.930Z,5.01
2023-02-11T05:13:26.217Z,4.95
2023-02-11T05:15:52.993Z,4.93
2023-02-11T05:18:19.406Z,5.02
2023-02-11T05:20:45.705Z,5.04
2023-02-11T05:23:12.286Z,5.01
2023-02-11T05:25:38.933Z,5.10
2023-02-11T05:28:06.241Z,5.03
2023-02-11T05:30:32.782Z,5.06
2023-02-11T05:32:59.077Z,5.01
2023-02-11T05:35:25.542Z,5.13
2023-02-11T05:37:51.847Z,5.15
2023-02-11T05:40:18.244Z,5.02
2023-02-11T05:42:44.523Z,5.15
2023-02-11T05:45:10.847Z,5.15
2023-02-11T05:47:37.139Z,5.05
2023-02-11T05:50:03.727Z,5.10
2023-02-11T05:52:30.054Z,5.08
2023-02-11T05:54:56.363Z,5.06
2023-02-11T05:57:22.999Z,5.17
2023-02-11T05:59:49.309Z,5.15
2023-02-11T06:02:15.687Z,5.12
2023-02-11T06:04:42.056Z,5.14
2023-02-11T06:07:08.398Z,5.07
2023-02-11T06:09:34.709Z,5.03
2023-02-11T06:12:01.018Z,5.15
2023-02-11T06:14:27.332Z,5.21
2023-02-11T06:16:53.659Z,5.24
2023-02-11T06:19:19.996Z,5.24
2023-02-11T06:21:46.342Z,5.18
2023-02-11T06:24:12.980Z,5.13
2023-02-11T06:26:39.314Z,5.19
2023-02-11T06:29:05.629Z,5.18
2023-02-11T06:31:32.094Z,5.10
2023-02-11T06:33:58.435Z,5.14
2023-02-11T06:36:25.056Z,5.09
2023-02-11T06:38:52.035Z,5.18
2023-02-11T06:41:19.893Z,5.25
2023-02-11T06:43:46.436Z,5.24
2023-02-11T06:46:13.151Z,5.12
2023-02-11T06:48:39.537Z,5.11
2023-02-11T06:51:08.468Z,5.17
2023-02-11T06:53:40.431Z,5.26
2023-02-11T06:56:09.875Z,5.24
2023-02-11T06:58:37.112Z,5.16
2023-02-11T07:01:08.550Z,5.12
2023-02-11T07:03:36.778Z,5.08
2023-02-11T07:06:04.129Z,5.15
2023-02-11T07:08:30.439Z,5.14
2023-02-11T07:10:56.740Z,5.13
2023-02-11T07:13:23.052Z,5.11
2023-02-11T07:15:49.708Z,5.24
2023-02-11T07:18:16.266Z,5.22
2023-02-11T07:20:42.824Z,5.15
2023-02-11T07:23:09.196Z,5.26
2023-02-11T07:25:36.080Z,5.18
2023-02-11T07:28:03.984Z,5.17
2023-02-11T07:30:30.340Z,5.18
2023-02-11T07:32:56.684Z,5.16
2023-02-11T07:35:22.992Z,5.18
2023-02-11T07:37:49.288Z,5.12
2023-02-11T07:40:15.670Z,5.21
2023-02-11T07:42:41.982Z,5.21
2023-02-11T07:45:08.738Z,5.23
2023-02-11T07:47:35.558Z,5.16
2023-02-11T07:50:01.880Z,5.22
2023-02-11T07:52:31.420Z,5.18
2023-02-11T07:54:57.734Z,5.20
2023-02-11T07:57:24.040Z,5.19
2023-02-11T07:59:50.335Z,5.25
2023-02-11T08:02:16.683Z,5.23
2023-02-11T08:04:42.988Z,5.30
2023-02-11T08:07:09.294Z,5.34
2023-02-11T08:09:35.645Z,5.32
2023-02-11T08:12:02.050Z,5.35
2023-02-11T08:14:28.354Z,5.35
2023-02-11T08:16:54.706Z,5.45
2023-02-11T08:19:21.066Z,5.47
2023-02-11T08:21:47.399Z,5.46
2023-02-11T08:24:13.735Z,5.35
2023-02-11T08:26:40.154Z,5.52
2023-02-11T08:29:10.793Z,5.45
2023-02-11T08:31:40.899Z,5.43
2023-02-11T08:34:07.245Z,5.54
2023-02-11T08:36:36.239Z,5.44
2023-02-11T08:39:18.470Z,5.47
2023-02-11T08:41:47.476Z,5.54
2023-02-11T08:44:13.905Z,5.48
2023-02-11T08:46:40.388Z,5.56
2023-02-11T08:49:06.692Z,5.47
2023-02-11T08:51:33.333Z,5.39
2023-02-11T08:54:00.731Z,5.56
2023-02-11T08:56:28.051Z,5.61
2023-02-11T08:58:54.822Z,5.54
2023-02-11T09:01:25.277Z,5.55
2023-02-11T09:03:51.736Z,5.55
2023-02-11T09:06:18.682Z,5.78
2023-02-11T09:08:48.516Z,5.66
2023-02-11T09:11:15.593Z,5.75
2023-02-11T09:13:43.584Z,5.84
2023-02-11T09:16:18.286Z,5.87
2023-02-11T09:18:44.696Z,5.73
2023-02-11T09:21:11.274Z,5.89
2023-02-11T09:23:37.596Z,5.91
2023-02-11T09:26:09.460Z,5.89
2023-02-11T09:28:35.986Z,5.84
2023-02-11T09:31:10.276Z,5.85
2023-02-11T09:33:38.615Z,5.92
2023-02-11T09:36:06.401Z,5.94
2023-02-11T09:38:33.221Z,5.99
2023-02-11T09:40:59.727Z,5.98
2023-02-11T09:43:53.873Z,5.95
2023-02-11T09:46:22.987Z,5.98
2023-02-11T09:48:51.736Z,5.84
2023-02-11T09:51:47.558Z,5.96
2023-02-11T09:54:23.180Z,5.92
2023-02-11T09:56:49.500Z,5.97
2023-02-11T09:59:16.634Z,6.06
2023-02-11T10:01:58.848Z,5.94
2023-02-11T10:04:59.346Z,5.88
2023-02-11T10:07:41.766Z,6.00
2023-02-11T10:10:35.172Z,6.09
2023-02-11T10:13:35.786Z,6.16
2023-02-11T10:16:40.628Z,6.23
2023-02-11T10:19:15.360Z,6.20
2023-02-11T10:21:57.411Z,6.18
2023-02-11T10:24:24.350Z,6.15
2023-02-11T10:26:51.748Z,6.15
2023-02-11T10:29:36.550Z,6.17
2023-02-11T10:32:10.991Z,6.26
2023-02-11T10:34:41.419Z,6.32
2023-02-11T10:37:12.845Z,6.20
2023-02-11T10:39:40.838Z,6.11
2023-02-11T10:42:11.693Z,6.08
2023-02-11T10:44:42.385Z,6.15
2023-02-11T10:47:18.675Z,6.16
2023-02-11T10:49:46.732Z,6.17
2023-02-11T10:52:17.433Z,6.20
2023-02-11T10:55:00.665Z,6.18
2023-02-11T10:57:40.514Z,6.28
2023-02-11T11:00:40.129Z,6.33
2023-02-11T11:03:19.919Z,6.48
2023-02-11T11:05:52.416Z,6.61
2023-02-11T11:08:19.535Z,6.70
2023-02-11T11:11:02.498Z,6.68
2023-02-11T11:13:34.916Z,6.83
2023-02-11T11:16:13.602Z,6.87
2023-02-11T11:18:41.650Z,6.94
2023-02-11T11:21:15.961Z,6.98
2023-02-11T11:23:49.995Z,6.94
2023-02-11T11:26:17.831Z,7.04
2023-02-11T11:28:54.760Z,7.10
2023-02-11T11:31:32.734Z,7.23
2023-02-11T11:34:03.460Z,7.12
2023-02-11T11:36:37.700Z,7.26
2023-02-11T11:39:24.683Z,7.15
2023-02-11T11:42:02.562Z,7.21
2023-02-11T11:44:35.246Z,7.30
2023-02-11T11:47:07.571Z,7.06
2023-02-11T11:49:41.630Z,7.07
2023-02-11T11:52:46.165Z,7.06
2023-02-11T11:55:22.629Z,7.25
2023-02-11T11:57:49.427Z,7.35
2023-02-11T12:00:20.775Z,7.38
2023-02-11T12:03:08.730Z,7.35
2023-02-11T12:05:44.129Z,7.12
2023-02-11T12:08:25.420Z,7.22
2023-02-11T12:11:16.582Z,7.34
2023-02-11T12:14:00.695Z,7.19
2023-02-11T12:16:50.830Z,7.22
2023-02-11T12:19:32.400Z,7.30
2023-02-11T12:22:26.469Z,7.23
2023-02-11T12:25:16.294Z,7.20
2023-02-11T12:27:45.354Z,7.12
2023-02-11T12:30:50.625Z,7.17
2023-02-11T12:34:07.998Z,7.18
2023-02-11T12:36:57.722Z,7.22
2023-02-11T12:39:44.231Z,7.20
2023-02-11T12:42:31.763Z,7.29
2023-02-11T12:45:08.745Z,7.21
2023-02-11T12:48:13.936Z,7.23
2023-02-11T12:50:54.857Z,7.18
2023-02-11T12:53:30.230Z,7.34
2023-02-11T12:56:04.724Z,7.59
2023-02-11T12:58:44.937Z,7.70
2023-02-11T13:01:24.520Z,7.75
2023-02-11T13:03:55.791Z,7.88
2023-02-11T13:06:29.141Z,7.90
2023-02-11T13:09:02.784Z,7.95
2023-02-11T13:11:40.169Z,7.92
2023-02-11T13:14:21.830Z,7.91
2023-02-11T13:16:50.532Z,7.90
2023-02-11T13:19:25.219Z,7.93
2023-02-11T13:22:04.067Z,8.03
2023-02-11T13:24:33.119Z,8.02
2023-02-11T13:27:24.681Z,7.98
2023-02-11T13:30:16.044Z,7.95
2023-02-11T13:32:54.677Z,7.98
2023-02-11T13:35:42.657Z,8.03
2023-02-11T13:38:19.722Z,7.85
2023-02-11T13:41:04.715Z,7.80
2023-02-11T13:43:33.621Z,7.76
2023-02-11T13:46:02.920Z,7.75
2023-02-11T13:48:33.254Z,7.60
2023-02-11T13:51:02.670Z,7.61
2023-02-11T13:53:29.733Z,7.70
2023-02-11T13:56:08.792Z,7.82
2023-02-11T13:58:49.571Z,7.68
2023-02-11T14:01:42.152Z,7.72
2023-02-11T14:04:23.193Z,7.80
2023-02-11T14:07:26.450Z,7.91
2023-02-11T14:09:52.771Z,7.88
2023-02-11T14:12:25.455Z,7.91
2023-02-11T14:15:18.873Z,7.87
2023-02-11T14:17:45.823Z,7.82
2023-02-11T14:20:32.948Z,7.74
2023-02-11T14:22:59.870Z,7.82
2023-02-11T14:25:26.846Z,7.92
2023-02-11T14:28:00.818Z,7.90
2023-02-11T14:30:34.690Z,8.00
2023-02-11T14:33:16.704Z,7.97
2023-02-11T14:36:05.219Z,7.90
2023-02-11T14:39:09.256Z,7.83
2023-02-11T14:41:41.564Z,7.72
2023-02-11T14:44:21.123Z,7.76
2023-02-11T14:46:49.821Z,7.77
2023-02-11T14:49:26.382Z,7.92
2023-02-11T14:51:56.282Z,7.77
2023-02-11T14:54:26.647Z,7.74
2023-02-11T14:57:16.102Z,7.61
2023-02-11T15:00:00.599Z,7.63
2023-02-11T15:02:34.755Z,7.60
2023-02-11T15:05:24.163Z,7.58
2023-02-11T15:07:54.103Z,7.56
2023-02-11T15:10:32.720Z,7.61
2023-02-11T15:13:00.706Z,7.55
2023-02-11T15:15:28.271Z,7.59
2023-02-11T15:17:58.019Z,7.53
2023-02-11T15:20:31.012Z,7.48
2023-02-11T15:23:07.556Z,7.45
2023-02-11T15:25:34.406Z,7.51
2023-02-11T15:28:00.972Z,7.72
2023-02-11T15:30:31.464Z,7.73
2023-02-11T15:33:00.521Z,7.73
2023-02-11T15:35:39.087Z,7.60
2023-02-11T15:38:05.749Z,7.63
2023-02-11T15:40:34.570Z,7.66
2023-02-11T15:43:03.089Z,7.68
2023-02-11T15:45:34.165Z,7.49
2023-02-11T15:48:14.213Z,7.52
2023-02-11T15:50:42.100Z,7.38
2023-02-11T15:53:56.547Z,7.38
2023-02-11T15:56:31.218Z,7.40
2023-02-11T15:59:00.179Z,7.46
2023-02-11T16:01:34.546Z,7.36
2023-02-11T16:04:02.077Z,7.38
2023-02-11T16:06:39.282Z,7.31
2023-02-11T16:09:23.289Z,7.43
2023-02-11T16:11:49.528Z,7.50
2023-02-11T16:14:27.936Z,7.51
2023-02-11T16:16:59.934Z,7.57
2023-02-11T16:19:28.317Z,7.53
2023-02-11T16:21:57.821Z,7.48
2023-02-11T16:24:31.842Z,7.41
2023-02-11T16:27:01.622Z,7.42
2023-02-11T16:29:36.215Z,7.41
2023-02-11T16:32:18.335Z,7.36
2023-02-11T16:34:45.082Z,7.38
2023-02-11T16:37:13.803Z,7.34
2023-02-11T16:39:40.600Z,7.38
2023-02-11T16:42:07.756Z,7.34
2023-02-11T16:44:35.167Z,7.37
2023-02-11T16:47:03.528Z,7.37
2023-02-11T16:49:32.890Z,7.37
2023-02-11T16:52:02.362Z,7.39
2023-02-11T16:54:29.515Z,7.41
2023-02-11T16:56:56.782Z,7.46
2023-02-11T16:59:23.389Z,7.43
2023-02-11T17:01:52.033Z,7.38
2023-02-11T17:04:29.791Z,7.34
2023-02-11T17:06:58.397Z,7.29
2023-02-11T17:09:30.356Z,7.38
2023-02-11T17:11:57.290Z,7.36
2023-02-11T17:14:23.581Z,7.30
2023-02-11T17:16:50.052Z,7.26
2023-02-11T17:19:22.158Z,7.24
2023-02-11T17:21:51.037Z,7.29
2023-02-11T17:24:18.563Z,7.34
2023-02-11T17:26:45.953Z,7.38
2023-02-11T17:29:16.660Z,7.40
2023-02-11T17:31:43.520Z,7.43
2023-02-11T17:34:10.510Z,7.40
2023-02-11T17:36:37.151Z,7.30
2023-02-11T17:39:07.695Z,7.34
2023-02-11T17:41:37.231Z,7.33
2023-02-11T17:44:04.128Z,7.30
2023-02-11T17:46:30.567Z,7.36
2023-02-11T17:48:59.080Z,7.35
2023-02-11T17:51:27.248Z,7.39
2023-02-11T17:53:53.972Z,7.36
2023-02-11T17:56:20.527Z,7.30
2023-02-11T17:58:47.569Z,7.40
2023-02-11T18:01:14.429Z,7.36
2023-02-11T18:03:40.810Z,7.39
2023-02-11T18:06:07.701Z,7.44
2023-02-11T18:08:35.335Z,7.38
2023-02-11T18:11:02.203Z,7.34
2023-02-11T18:13:29.751Z,7.36
2023-02-11T18:16:02.697Z,7.35
2023-02-11T18:18:29.148Z,7.37
2023-02-11T18:20:59.406Z,7.33
2023-02-11T18:23:26.271Z,7.31
2023-02-11T18:25:52.946Z,7.19
2023-02-11T18:28:19.691Z,7.21
2023-02-11T18:30:46.079Z,7.22
2023-02-11T18:33:12.731Z,7.35
2023-02-11T18:35:39.536Z,7.32
2023-02-11T18:38:05.900Z,7.28
2023-02-11T18:40:38.849Z,7.30
2023-02-11T18:43:08.116Z,7.30
2023-02-11T18:45:34.564Z,7.34
2023-02-11T18:48:00.906Z,7.35
2023-02-11T18:50:27.410Z,7.42
2023-02-11T18:52:53.717Z,7.37
2023-02-11T18:55:22.548Z,7.34
2023-02-11T18:57:49.813Z,7.33
2023-02-11T19:00:16.567Z,7.33
2023-02-11T19:02:42.863Z,7.35
2023-02-11T19:05:09.582Z,7.29
2023-02-11T19:07:35.965Z,7.33
2023-02-11T19:10:02.313Z,7.34
2023-02-11T19:12:28.596Z,7.37
2023-02-11T19:14:54.887Z,7.36
2023-02-11T19:17:21.234Z,7.32
2023-02-11T19:19:47.684Z,7.33
2023-02-11T19:22:13.974Z,7.34
2023-02-11T19:24:40.299Z,7.28
2023-02-11T19:27:06.607Z,7.21
2023-02-11T19:29:33.100Z,7.24
2023-02-11T19:31:59.483Z,7.38
2023-02-11T19:34:25.842Z,7.39
2023-02-11T19:36:52.632Z,7.29
2023-02-11T19:39:18.923Z,7.37
2023-02-11T19:41:45.302Z,7.39
2023-02-11T19:44:13.622Z,7.40
2023-02-11T19:46:40.245Z,7.22
2023-02-11T19:49:06.759Z,7.33
2023-02-11T19:51:33.732Z,7.33
2023-02-11T19:54:00.652Z,7.36
2023-02-11T19:56:27.591Z,7.31
2023-02-11T19:58:54.893Z,7.33
2023-02-11T20:01:22.731Z,7.27
2023-02-11T20:03:50.221Z,7.67
2023-02-11T20:06:19.904Z,7.92
2023-02-11T20:08:46.288Z,7.86
2023-02-11T20:11:16.985Z,7.85
2023-02-11T20:13:44.321Z,7.82
2023-02-11T20:16:16.280Z,7.76
2023-02-11T20:18:43.509Z,7.66
2023-02-11T20:21:16.123Z,7.69
2023-02-11T20:23:43.141Z,7.76
2023-02-11T20:26:13.074Z,8.08
2023-02-11T20:28:39.470Z,8.04
2023-02-11T20:31:06.864Z,8.14
2023-02-11T20:33:34.096Z,8.04
2023-02-11T20:36:07.624Z,7.84
2023-02-11T20:38:34.962Z,7.78
2023-02-11T20:41:11.446Z,7.52
2023-02-11T20:43:38.077Z,7.56
2023-02-11T20:46:06.012Z,7.51
2023-02-11T20:48:32.990Z,7.55
2023-02-11T20:51:04.345Z,7.58
2023-02-11T20:53:30.870Z,7.37
2023-02-11T20:56:00.488Z,7.44
2023-02-11T20:58:26.799Z,7.44
2023-02-11T21:00:53.234Z,7.45
2023-02-11T21:03:19.563Z,7.44
2023-02-11T21:05:45.913Z,7.40
2023-02-11T21:08:12.257Z,7.32
2023-02-11T21:10:38.612Z,7.34
2023-02-11T21:13:04.978Z,7.31
2023-02-11T21:15:31.342Z,7.35
2023-02-11T21:17:57.918Z,7.33
2023-02-11T21:20:24.314Z,7.38
2023-02-11T21:22:50.757Z,7.34
2023-02-11T21:25:17.492Z,7.40
2023-02-11T21:27:46.472Z,7.45
2023-02-11T21:30:13.409Z,7.42
2023-02-11T21:32:39.769Z,7.34
2023-02-11T21:35:06.839Z,7.29
2023-02-11T21:37:33.254Z,7.35
2023-02-11T21:39:59.863Z,7.47
2023-02-11T21:42:26.469Z,7.50
2023-02-11T21:44:52.800Z,7.48
2023-02-11T21:47:19.120Z,7.44
2023-02-11T21:49:45.427Z,7.51
2023-02-11T21:52:11.766Z,7.42
2023-02-11T21:54:38.115Z,7.39
2023-02-11T21:57:04.453Z,7.46
2023-02-11T21:59:30.826Z,7.49
2023-02-11T22:01:57.574Z,7.42
2023-02-11T22:04:24.239Z,7.35
2023-02-11T22:06:50.730Z,7.35
2023-02-11T22:09:17.285Z,7.31
2023-02-11T22:11:43.712Z,7.43
2023-02-11T22:14:10.178Z,7.36
2023-02-11T22:16:36.778Z,7.39
2023-02-11T22:19:03.379Z,7.46
2023-02-11T22:21:29.973Z,7.41
2023-02-11T22:23:56.700Z,7.33
2023-02-11T22:26:25.050Z,7.43
2023-02-11T22:28:52.126Z,7.44
2023-02-11T22:31:22.719Z,7.45
2023-02-11T22:33:49.722Z,7.42
2023-02-11T22:36:19.307Z,7.45
2023-02-11T22:38:45.717Z,7.34
2023-02-11T22:41:12.744Z,7.34
2023-02-11T22:43:39.632Z,7.48
2023-02-11T22:46:07.283Z,7.45
2023-02-11T22:48:35.179Z,7.48
2023-02-11T22:51:06.606Z,7.46
2023-02-11T22:53:33.257Z,7.41
2023-02-11T22:56:05.679Z,7.36
2023-02-11T22:58:32.414Z,7.39
2023-02-11T23:00:58.761Z,7.42
2023-02-11T23:03:25.259Z,7.42
2023-02-11T23:05:51.597Z,7.31
2023-02-11T23:08:18.246Z,7.36
2023-02-11T23:10:44.564Z,7.39
2023-02-11T23:13:10.887Z,7.43
2023-02-11T23:15:41.439Z,7.47
2023-02-11T23:18:09.049Z,7.54
2023-02-11T23:20:42.007Z,7.41
2023-02-11T23:23:08.750Z,7.38
2023-02-11T23:25:35.267Z,7.43
2023-02-11T23:28:01.683Z,7.41
2023-02-11T23:30:28.485Z,7.39
2023-02-11T23:32:54.805Z,7.45
2023-02-11T23:35:21.108Z,7.38
2023-02-11T23:37:48.452Z,7.45
2023-02-11T23:40:14.890Z,7.41
2023-02-11T23:42:41.510Z,7.37
2023-02-11T23:45:08.273Z,7.41
2023-02-11T23:47:35.051Z,7.40
2023-02-11T23:50:01.479Z,7.29
2023-02-11T23:52:27.787Z,7.36
2023-02-11T23:54:54.077Z,7.37
2023-02-11T23:57:20.401Z,7.31
2023-02-11T23:59:49.066Z,7.29
